Terminal Aerodrome Forecast
Issued by NWS Quad Cities IA IL

Home | Current Version | Previous Version | Text Only | Print | Product List | Glossary On
Versions: 1 2 3 4 5 6 7 8 9 10 11 12 13 14 15 16 17 18 19 20 21 22 23 24 25 26 27 28 29 30 31 32
721
FTUS43 KDVN 292325
TAFDBQ
TAF
KDBQ 292325Z 3000/3024 07008KT P6SM OVC030
     FM300100 08010KT P6SM BKN040
     FM301200 07015G22KT P6SM VCSH OVC025
     FM301400 08017G25KT 3SM RA BR SCT008 OVC015
     FM302000 05015G23KT 5SM -SHRA BR BKN008 OVC012=

USA.gov is the U.S. government's official web portal to all federal, state and local government web resources and services.